sensor_id;sensor_type;location;lat;lon;timestamp;pressure;altitude;pressure_sealevel;temperature;humidity
14689;BME280;7432;48.728;9.154;2024-02-14T00:01:51;142481.13;;;2.51;94.33
14689;BME280;7432;48.728;9.154;2024-02-14T00:04:19;142488.34;;;2.54;93.20
14689;BME280;7432;48.728;9.154;2024-02-14T00:06:46;142508.78;;;2.62;94.43
14689;BME280;7432;48.728;9.154;2024-02-14T00:09:12;142529.19;;;2.71;93.70
14689;BME280;7432;48.728;9.154;2024-02-14T00:11:39;142525.59;;;2.69;93.90
14689;BME280;7432;48.728;9.154;2024-02-14T00:14:05;142543.59;;;2.77;92.81
14689;BME280;7432;48.728;9.154;2024-02-14T00:16:32;142550.81;;;2.80;93.40
14689;BME280;7432;48.728;9.154;2024-02-14T00:18:58;142549.63;;;2.79;92.46
14689;BME280;7432;48.728;9.154;2024-02-14T00:21:26;142547.25;;;2.78;92.60
14689;BME280;7432;48.728;9.154;2024-02-14T00:23:52;142548.41;;;2.79;92.21
14689;BME280;7432;48.728;9.154;2024-02-14T00:26:19;142544.81;;;2.77;92.51
14689;BME280;7432;48.728;9.154;2024-02-14T00:28:45;142540.03;;;2.75;92.87
14689;BME280;7432;48.728;9.154;2024-02-14T00:31:11;142561.63;;;2.84;92.45
14689;BME280;7432;48.728;9.154;2024-02-14T00:33:38;142576.06;;;2.90;92.71
14689;BME280;7432;48.728;9.154;2024-02-14T00:36:05;142610.97;;;3.05;93.07
14689;BME280;7432;48.728;9.154;2024-02-14T00:38:32;142639.78;;;3.17;92.41
14689;BME280;7432;48.728;9.154;2024-02-14T00:40:59;142663.88;;;3.27;91.14
14689;BME280;7432;48.728;9.154;2024-02-14T00:43:25;142677.09;;;3.33;91.52
14689;BME280;7432;48.728;9.154;2024-02-14T00:45:51;142677.09;;;3.33;91.17
14689;BME280;7432;48.728;9.154;2024-02-14T00:48:18;142702.34;;;3.43;92.38
14689;BME280;7432;48.728;9.154;2024-02-14T00:50:44;142713.16;;;3.48;91.90
14689;BME280;7432;48.728;9.154;2024-02-14T00:53:11;142732.41;;;3.56;91.93
14689;BME280;7432;48.728;9.154;2024-02-14T00:55:39;142763.69;;;3.69;90.90
14689;BME280;7432;48.728;9.154;2024-02-14T00:58:06;142803.41;;;3.86;90.27
14689;BME280;7432;48.728;9.154;2024-02-14T01:00:32;142828.66;;;3.96;90.32
14689;BME280;7432;48.728;9.154;2024-02-14T01:02:58;142832.28;;;3.98;90.84
14689;BME280;7432;48.728;9.154;2024-02-14T01:05:25;142843.13;;;4.02;92.08
14689;BME280;7432;48.728;9.154;2024-02-14T01:07:51;142851.53;;;4.06;92.79
14689;BME280;7432;48.728;9.154;2024-02-14T01:10:19;142864.78;;;4.11;92.20
14689;BME280;7432;48.728;9.154;2024-02-14T01:12:46;142868.38;;;4.13;92.86
14689;BME280;7432;48.728;9.154;2024-02-14T01:15:13;142879.25;;;4.17;92.94
14689;BME280;7432;48.728;9.154;2024-02-14T01:17:39;142886.47;;;4.21;93.15
14689;BME280;7432;48.728;9.154;2024-02-14T01:20:07;142888.84;;;4.22;93.51
14689;BME280;7432;48.728;9.154;2024-02-14T01:22:34;142902.09;;;4.27;94.00
14689;BME280;7432;48.728;9.154;2024-02-14T01:25:00;142909.31;;;4.30;93.73
14689;BME280;7432;48.728;9.154;2024-02-14T01:27:28;142908.09;;;4.30;94.09
14689;BME280;7432;48.728;9.154;2024-02-14T01:29:55;142909.31;;;4.30;95.02
14689;BME280;7432;48.728;9.154;2024-02-14T01:32:22;142918.97;;;4.34;95.10
14689;BME280;7432;48.728;9.154;2024-02-14T01:34:49;142924.97;;;4.37;96.09
14689;BME280;7432;48.728;9.154;2024-02-14T01:37:15;142934.59;;;4.41;95.77
14689;BME280;7432;48.728;9.154;2024-02-14T01:39:42;142927.38;;;4.38;96.33
14689;BME280;7432;48.728;9.154;2024-02-14T01:42:08;142921.34;;;4.35;96.22
14689;BME280;7432;48.728;9.154;2024-02-14T01:44:34;142944.25;;;4.45;96.02
14689;BME280;7432;48.728;9.154;2024-02-14T01:47:03;142940.59;;;4.43;95.98
14689;BME280;7432;48.728;9.154;2024-02-14T01:49:31;142949.03;;;4.47;95.88
14689;BME280;7432;48.728;9.154;2024-02-14T01:51:59;142958.66;;;4.51;95.87
14689;BME280;7432;48.728;9.154;2024-02-14T01:54:27;142979.13;;;4.59;95.81
14689;BME280;7432;48.728;9.154;2024-02-14T01:56:54;142974.31;;;4.57;95.37
14689;BME280;7432;48.728;9.154;2024-02-14T01:59:21;142980.34;;;4.60;95.45
14689;BME280;7432;48.728;9.154;2024-02-14T02:01:47;142983.97;;;4.61;94.95
14689;BME280;7432;48.728;9.154;2024-02-14T02:04:15;142997.22;;;4.67;94.88
14689;BME280;7432;48.728;9.154;2024-02-14T02:06:42;142998.38;;;4.67;94.77
14689;BME280;7432;48.728;9.154;2024-02-14T02:09:08;143008.03;;;4.71;94.77
14689;BME280;7432;48.728;9.154;2024-02-14T02:11:42;143002.03;;;4.69;94.69
14689;BME280;7432;48.728;9.154;2024-02-14T02:14:09;143010.47;;;4.72;93.87
14689;BME280;7432;48.728;9.154;2024-02-14T02:16:35;143028.53;;;4.80;94.49
14689;BME280;7432;48.728;9.154;2024-02-14T02:19:03;143024.88;;;4.78;94.06
14689;BME280;7432;48.728;9.154;2024-02-14T02:21:34;143039.34;;;4.85;94.43
14689;BME280;7432;48.728;9.154;2024-02-14T02:24:02;143059.81;;;4.93;95.41
14689;BME280;7432;48.728;9.154;2024-02-14T02:26:29;143061.03;;;4.94;94.98
14689;BME280;7432;48.728;9.154;2024-02-14T02:28:55;143079.09;;;5.01;95.03
14689;BME280;7432;48.728;9.154;2024-02-14T02:31:22;143079.09;;;5.01;94.58
14689;BME280;7432;48.728;9.154;2024-02-14T02:33:48;143068.28;;;4.97;94.43
14689;BME280;7432;48.728;9.154;2024-02-14T02:36:16;143082.69;;;5.03;94.66
14689;BME280;7432;48.728;9.154;2024-02-14T02:38:42;143068.28;;;4.97;95.07
14689;BME280;7432;48.728;9.154;2024-02-14T02:41:10;143051.38;;;4.90;95.52
14689;BME280;7432;48.728;9.154;2024-02-14T02:43:37;143034.53;;;4.83;95.93
14689;BME280;7432;48.728;9.154;2024-02-14T02:46:03;143024.88;;;4.78;95.58
14689;BME280;7432;48.728;9.154;2024-02-14T02:48:30;142999.59;;;4.68;95.80
14689;BME280;7432;48.728;9.154;2024-02-14T02:50:56;142990.00;;;4.64;95.71
14689;BME280;7432;48.728;9.154;2024-02-14T02:53:23;142990.00;;;4.64;95.72
14689;BME280;7432;48.728;9.154;2024-02-14T02:55:50;142990.00;;;4.64;96.09
14689;BME280;7432;48.728;9.154;2024-02-14T02:58:20;142992.38;;;4.65;95.99
14689;BME280;7432;48.728;9.154;2024-02-14T03:00:47;143004.41;;;4.70;95.93
14689;BME280;7432;48.728;9.154;2024-02-14T03:03:14;143009.25;;;4.72;95.82
14689;BME280;7432;48.728;9.154;2024-02-14T03:05:41;143027.31;;;4.79;95.21
14689;BME280;7432;48.728;9.154;2024-02-14T03:08:09;143046.59;;;4.88;94.38
14689;BME280;7432;48.728;9.154;2024-02-14T03:10:38;143055.03;;;4.91;93.73
14689;BME280;7432;48.728;9.154;2024-02-14T03:13:05;143067.06;;;4.96;93.36
14689;BME280;7432;48.728;9.154;2024-02-14T03:15:34;143080.31;;;5.02;92.50
14689;BME280;7432;48.728;9.154;2024-02-14T03:18:01;143069.50;;;4.97;92.74
14689;BME280;7432;48.728;9.154;2024-02-14T03:20:30;143064.63;;;4.95;92.08
14689;BME280;7432;48.728;9.154;2024-02-14T03:22:57;143064.63;;;4.95;91.02
14689;BME280;7432;48.728;9.154;2024-02-14T03:25:23;143065.84;;;4.96;91.19
14689;BME280;7432;48.728;9.154;2024-02-14T03:27:49;143056.25;;;4.92;92.02
14689;BME280;7432;48.728;9.154;2024-02-14T03:30:18;143051.38;;;4.90;93.07
14689;BME280;7432;48.728;9.154;2024-02-14T03:32:46;143045.38;;;4.87;93.37
14689;BME280;7432;48.728;9.154;2024-02-14T03:35:13;143039.34;;;4.85;94.14
14689;BME280;7432;48.728;9.154;2024-02-14T03:37:40;143027.31;;;4.79;93.19
14689;BME280;7432;48.728;9.154;2024-02-14T03:40:08;142999.59;;;4.68;92.94
14689;BME280;7432;48.728;9.154;2024-02-14T03:42:35;142965.88;;;4.54;92.96
14689;BME280;7432;48.728;9.154;2024-02-14T03:45:01;142945.47;;;4.45;93.50
14689;BME280;7432;48.728;9.154;2024-02-14T03:47:30;142923.78;;;4.36;94.51
14689;BME280;7432;48.728;9.154;2024-02-14T03:49:59;142929.78;;;4.39;94.54
14689;BME280;7432;48.728;9.154;2024-02-14T03:52:25;142946.63;;;4.46;94.55
14689;BME280;7432;48.728;9.154;2024-02-14T03:54:52;142958.66;;;4.51;94.67
14689;BME280;7432;48.728;9.154;2024-02-14T03:57:18;142971.91;;;4.56;94.52
14689;BME280;7432;48.728;9.154;2024-02-14T03:59:46;142980.34;;;4.60;94.79
14689;BME280;7432;48.728;9.154;2024-02-14T04:02:12;142991.22;;;4.64;94.52
14689;BME280;7432;48.728;9.154;2024-02-14T04:04:41;142998.38;;;4.67;93.98
14689;BME280;7432;48.728;9.154;2024-02-14T04:07:10;143004.41;;;4.70;93.22
14689;BME280;7432;48.728;9.154;2024-02-14T04:09:36;143010.47;;;4.72;93.41
14689;BME280;7432;48.728;9.154;2024-02-14T04:12:03;143026.09;;;4.79;92.46
14689;BME280;7432;48.728;9.154;2024-02-14T04:14:30;143030.91;;;4.81;92.95
14689;BME280;7432;48.728;9.154;2024-02-14T04:16:56;143032.13;;;4.82;92.62
14689;BME280;7432;48.728;9.154;2024-02-14T04:19:23;143014.06;;;4.74;92.44
14689;BME280;7432;48.728;9.154;2024-02-14T04:21:49;142990.00;;;4.64;92.93
14689;BME280;7432;48.728;9.154;2024-02-14T04:24:17;142990.00;;;4.64;92.91
14689;BME280;7432;48.728;9.154;2024-02-14T04:26:43;142986.34;;;4.62;92.93
14689;BME280;7432;48.728;9.154;2024-02-14T04:29:09;142986.34;;;4.62;92.50
14689;BME280;7432;48.728;9.154;2024-02-14T04:31:36;143004.41;;;4.70;91.71
14689;BME280;7432;48.728;9.154;2024-02-14T04:34:02;143022.50;;;4.77;90.90
14689;BME280;7432;48.728;9.154;2024-02-14T04:36:30;143020.09;;;4.76;91.50
14689;BME280;7432;48.728;9.154;2024-02-14T04:38:57;143012.84;;;4.73;91.37
14689;BME280;7432;48.728;9.154;2024-02-14T04:41:25;142997.22;;;4.67;91.59
14689;BME280;7432;48.728;9.154;2024-02-14T04:43:52;142994.81;;;4.66;90.76
14689;BME280;7432;48.728;9.154;2024-02-14T04:46:18;142971.91;;;4.56;91.39
14689;BME280;7432;48.728;9.154;2024-02-14T04:48:45;142976.75;;;4.58;91.51
14689;BME280;7432;48.728;9.154;2024-02-14T04:51:11;142986.34;;;4.62;91.42
14689;BME280;7432;48.728;9.154;2024-02-14T04:53:37;143004.41;;;4.70;91.25
14689;BME280;7432;48.728;9.154;2024-02-14T04:56:04;143021.28;;;4.77;91.73
14689;BME280;7432;48.728;9.154;2024-02-14T04:58:32;143038.13;;;4.84;92.26
14689;BME280;7432;48.728;9.154;2024-02-14T05:00:58;143065.84;;;4.96;91.80
14689;BME280;7432;48.728;9.154;2024-02-14T05:03:24;143083.91;;;5.03;92.19
14689;BME280;7432;48.728;9.154;2024-02-14T05:05:51;143092.34;;;5.07;92.25
14689;BME280;7432;48.728;9.154;2024-02-14T05:08:17;143111.63;;;5.15;90.80
14689;BME280;7432;48.728;9.154;2024-02-14T05:10:43;143115.25;;;5.16;90.29
14689;BME280;7432;48.728;9.154;2024-02-14T05:13:10;143126.09;;;5.21;89.84
14689;BME280;7432;48.728;9.154;2024-02-14T05:15:38;143138.13;;;5.26;88.37
14689;BME280;7432;48.728;9.154;2024-02-14T05:18:05;143144.16;;;5.28;87.92
14689;BME280;7432;48.728;9.154;2024-02-14T05:20:31;143167.06;;;5.38;86.46
14689;BME280;7432;48.728;9.154;2024-02-14T05:22:58;143159.81;;;5.35;86.01
14689;BME280;7432;48.728;9.154;2024-02-14T05:25:24;143156.19;;;5.33;85.80
14689;BME280;7432;48.728;9.154;2024-02-14T05:27:53;143153.81;;;5.32;84.90
14689;BME280;7432;48.728;9.154;2024-02-14T05:30:19;143130.91;;;5.23;85.97
14689;BME280;7432;48.728;9.154;2024-02-14T05:32:47;143171.88;;;5.40;85.85
14689;BME280;7432;48.728;9.154;2024-02-14T05:35:13;143142.94;;;5.28;84.10
14689;BME280;7432;48.728;9.154;2024-02-14T05:37:39;143158.63;;;5.34;83.62
14689;BME280;7432;48.728;9.154;2024-02-14T05:40:07;143147.78;;;5.30;84.07
14689;BME280;7432;48.728;9.154;2024-02-14T05:42:33;143157.41;;;5.34;84.31
14689;BME280;7432;48.728;9.154;2024-02-14T05:45:00;143145.38;;;5.29;84.07
14689;BME280;7432;48.728;9.154;2024-02-14T05:47:27;143142.94;;;5.28;84.71
14689;BME280;7432;48.728;9.154;2024-02-14T05:49:54;143162.22;;;5.36;84.29
14689;BME280;7432;48.728;9.154;2024-02-14T05:52:21;143168.22;;;5.38;83.95
14689;BME280;7432;48.728;9.154;2024-02-14T05:54:47;143163.44;;;5.36;83.50
14689;BME280;7432;48.728;9.154;2024-02-14T05:57:13;143140.56;;;5.27;84.77
14689;BME280;7432;48.728;9.154;2024-02-14T05:59:40;143132.09;;;5.23;85.09
14689;BME280;7432;48.728;9.154;2024-02-14T06:02:06;143135.69;;;5.25;84.91
14689;BME280;7432;48.728;9.154;2024-02-14T06:04:34;143127.31;;;5.21;85.08
14689;BME280;7432;48.728;9.154;2024-02-14T06:07:02;143127.31;;;5.21;85.78
14689;BME280;7432;48.728;9.154;2024-02-14T06:09:31;143138.13;;;5.26;86.78
14689;BME280;7432;48.728;9.154;2024-02-14T06:11:57;143134.53;;;5.24;86.87
14689;BME280;7432;48.728;9.154;2024-02-14T06:14:23;143135.69;;;5.25;86.65
14689;BME280;7432;48.728;9.154;2024-02-14T06:16:50;143152.59;;;5.32;84.55
14689;BME280;7432;48.728;9.154;2024-02-14T06:19:16;143154.97;;;5.33;84.56
14689;BME280;7432;48.728;9.154;2024-02-14T06:21:42;143151.38;;;5.31;85.44
14689;BME280;7432;48.728;9.154;2024-02-14T06:24:10;143141.72;;;5.27;85.90
14689;BME280;7432;48.728;9.154;2024-02-14T06:26:38;143140.56;;;5.27;85.65
14689;BME280;7432;48.728;9.154;2024-02-14T06:29:05;143145.38;;;5.29;85.36
14689;BME280;7432;48.728;9.154;2024-02-14T06:31:31;143153.81;;;5.32;85.69
14689;BME280;7432;48.728;9.154;2024-02-14T06:33:57;143164.63;;;5.37;85.81
14689;BME280;7432;48.728;9.154;2024-02-14T06:36:24;143170.66;;;5.39;86.88
14689;BME280;7432;48.728;9.154;2024-02-14T06:38:50;143174.25;;;5.41;86.82
14689;BME280;7432;48.728;9.154;2024-02-14T06:41:18;143171.88;;;5.40;87.26
14689;BME280;7432;48.728;9.154;2024-02-14T06:43:45;143183.91;;;5.45;87.18
14689;BME280;7432;48.728;9.154;2024-02-14T06:46:11;143187.50;;;5.47;86.43
14689;BME280;7432;48.728;9.154;2024-02-14T06:48:38;143197.16;;;5.51;86.62
14689;BME280;7432;48.728;9.154;2024-02-14T06:51:06;143209.22;;;5.56;87.41
14689;BME280;7432;48.728;9.154;2024-02-14T06:53:32;143215.22;;;5.58;86.14
14689;BME280;7432;48.728;9.154;2024-02-14T06:55:59;143215.22;;;5.58;86.87
14689;BME280;7432;48.728;9.154;2024-02-14T06:58:26;143217.66;;;5.59;86.63
14689;BME280;7432;48.728;9.154;2024-02-14T07:00:53;143226.09;;;5.63;85.77
14689;BME280;7432;48.728;9.154;2024-02-14T07:03:19;143232.13;;;5.65;85.75
14689;BME280;7432;48.728;9.154;2024-02-14T07:05:46;143244.19;;;5.70;85.46
14689;BME280;7432;48.728;9.154;2024-02-14T07:08:12;143273.06;;;5.82;84.27
14689;BME280;7432;48.728;9.154;2024-02-14T07:10:39;143273.06;;;5.82;84.18
14689;BME280;7432;48.728;9.154;2024-02-14T07:13:06;143281.56;;;5.86;84.25
14689;BME280;7432;48.728;9.154;2024-02-14T07:15:33;143280.34;;;5.85;83.73
14689;BME280;7432;48.728;9.154;2024-02-14T07:18:00;143304.50;;;5.95;83.86
14689;BME280;7432;48.728;9.154;2024-02-14T07:20:26;143311.69;;;5.98;83.86
14689;BME280;7432;48.728;9.154;2024-02-14T07:22:52;143351.47;;;6.15;83.47
14689;BME280;7432;48.728;9.154;2024-02-14T07:25:20;143358.72;;;6.18;82.54
14689;BME280;7432;48.728;9.154;2024-02-14T07:27:46;143364.75;;;6.21;83.60
14689;BME280;7432;48.728;9.154;2024-02-14T07:30:15;143358.72;;;6.18;83.74
14689;BME280;7432;48.728;9.154;2024-02-14T07:32:42;143369.59;;;6.23;83.75
14689;BME280;7432;48.728;9.154;2024-02-14T07:35:09;143347.88;;;6.14;83.91
14689;BME280;7432;48.728;9.154;2024-02-14T07:37:36;143380.44;;;6.27;83.96
14689;BME280;7432;48.728;9.154;2024-02-14T07:40:01;143385.25;;;6.29;84.59
14689;BME280;7432;48.728;9.154;2024-02-14T07:42:28;143405.75;;;6.38;85.42
14689;BME280;7432;48.728;9.154;2024-02-14T07:44:54;143415.44;;;6.42;85.10
14689;BME280;7432;48.728;9.154;2024-02-14T07:47:21;143432.28;;;6.49;84.61
14689;BME280;7432;48.728;9.154;2024-02-14T07:49:49;143460.03;;;6.61;84.08
14689;BME280;7432;48.728;9.154;2024-02-14T07:52:18;143487.75;;;6.72;83.20
14689;BME280;7432;48.728;9.154;2024-02-14T07:54:44;143536.03;;;6.92;83.25
14689;BME280;7432;48.728;9.154;2024-02-14T07:57:10;143574.63;;;7.08;81.61
14689;BME280;7432;48.728;9.154;2024-02-14T07:59:37;143604.81;;;7.21;82.30
14689;BME280;7432;48.728;9.154;2024-02-14T08:02:03;143649.47;;;7.40;80.55
14689;BME280;7432;48.728;9.154;2024-02-14T08:04:30;143682.06;;;7.53;80.46
14689;BME280;7432;48.728;9.154;2024-02-14T08:06:57;143694.13;;;7.58;78.12
14689;BME280;7432;48.728;9.154;2024-02-14T08:09:24;143720.69;;;7.69;78.32
14689;BME280;7432;48.728;9.154;2024-02-14T08:11:50;143748.47;;;7.81;77.96
14689;BME280;7432;48.728;9.154;2024-02-14T08:14:18;143768.94;;;7.90;78.28
14689;BME280;7432;48.728;9.154;2024-02-14T08:16:44;143750.84;;;7.82;78.15
14689;BME280;7432;48.728;9.154;2024-02-14T08:19:10;143781.06;;;7.95;77.10
14689;BME280;7432;48.728;9.154;2024-02-14T08:21:37;143813.66;;;8.08;76.70
14689;BME280;7432;48.728;9.154;2024-02-14T08:24:05;143822.09;;;8.12;77.97
14689;BME280;7432;48.728;9.154;2024-02-14T08:26:31;143829.34;;;8.15;76.78
14689;BME280;7432;48.728;9.154;2024-02-14T08:28:58;143880.09;;;8.36;75.46
14689;BME280;7432;48.728;9.154;2024-02-14T08:31:25;143892.22;;;8.41;75.76
14689;BME280;7432;48.728;9.154;2024-02-14T08:33:51;143907.91;;;8.48;76.10
14689;BME280;7432;48.728;9.154;2024-02-14T08:36:18;143921.19;;;8.53;75.64
14689;BME280;7432;48.728;9.154;2024-02-14T08:38:45;143939.28;;;8.61;75.02
14689;BME280;7432;48.728;9.154;2024-02-14T08:41:12;143959.84;;;8.69;75.42
14689;BME280;7432;48.728;9.154;2024-02-14T08:43:39;144043.25;;;9.04;74.54
14689;BME280;7432;48.728;9.154;2024-02-14T08:46:09;144130.25;;;9.40;73.50
14689;BME280;7432;48.728;9.154;2024-02-14T08:48:35;144155.63;;;9.51;72.27
14689;BME280;7432;48.728;9.154;2024-02-14T08:51:02;144158.06;;;9.52;71.67
14689;BME280;7432;48.728;9.154;2024-02-14T08:53:29;144165.31;;;9.55;72.11
14689;BME280;7432;48.728;9.154;2024-02-14T08:55:55;144132.69;;;9.41;72.50
14689;BME280;7432;48.728;9.154;2024-02-14T08:58:24;144160.50;;;9.53;72.06
14689;BME280;7432;48.728;9.154;2024-02-14T09:00:50;144173.81;;;9.59;71.67
14689;BME280;7432;48.728;9.154;2024-02-14T09:03:18;144183.47;;;9.63;71.01
14689;BME280;7432;48.728;9.154;2024-02-14T09:05:45;144189.50;;;9.65;72.48
14689;BME280;7432;48.728;9.154;2024-02-14T09:08:12;144205.22;;;9.72;72.08
14689;BME280;7432;48.728;9.154;2024-02-14T09:10:39;144207.63;;;9.73;71.96
14689;BME280;7432;48.728;9.154;2024-02-14T09:13:05;144231.84;;;9.83;71.50
14689;BME280;7432;48.728;9.154;2024-02-14T09:15:34;144247.53;;;9.89;71.16
14689;BME280;7432;48.728;9.154;2024-02-14T09:18:00;144216.09;;;9.76;72.37
14689;BME280;7432;48.728;9.154;2024-02-14T09:20:28;144230.63;;;9.82;70.51
14689;BME280;7432;48.728;9.154;2024-02-14T09:22:55;144241.50;;;9.87;71.79
14689;BME280;7432;48.728;9.154;2024-02-14T09:25:21;144222.16;;;9.79;71.33
14689;BME280;7432;48.728;9.154;2024-02-14T09:27:48;144208.84;;;9.73;73.19
14689;BME280;7432;48.728;9.154;2024-02-14T09:30:14;144225.81;;;9.80;72.62
14689;BME280;7432;48.728;9.154;2024-02-14T09:32:44;144243.94;;;9.88;73.36
14689;BME280;7432;48.728;9.154;2024-02-14T09:35:10;144299.53;;;10.11;72.43
14689;BME280;7432;48.728;9.154;2024-02-14T09:37:36;144337.13;;;10.27;71.48
14689;BME280;7432;48.728;9.154;2024-02-14T09:40:05;144349.22;;;10.32;71.45
14689;BME280;7432;48.728;9.154;2024-02-14T09:42:37;144364.91;;;10.38;70.99
14689;BME280;7432;48.728;9.154;2024-02-14T09:45:06;144432.69;;;10.66;70.47
14689;BME280;7432;48.728;9.154;2024-02-14T09:47:33;144473.84;;;10.84;69.47
14689;BME280;7432;48.728;9.154;2024-02-14T09:50:01;144524.69;;;11.05;69.78
14689;BME280;7432;48.728;9.154;2024-02-14T09:52:31;144570.69;;;11.24;69.29
14689;BME280;7432;48.728;9.154;2024-02-14T09:54:58;144625.19;;;11.47;67.96
14689;BME280;7432;48.728;9.154;2024-02-14T09:57:25;144655.44;;;11.59;68.05
14689;BME280;7432;48.728;9.154;2024-02-14T09:59:53;144717.28;;;11.85;68.04
14689;BME280;7432;48.728;9.154;2024-02-14T10:02:19;144679.72;;;11.69;68.58
14689;BME280;7432;48.728;9.154;2024-02-14T10:04:47;144680.94;;;11.70;67.79
14689;BME280;7432;48.728;9.154;2024-02-14T10:07:15;144654.22;;;11.59;69.11
14689;BME280;7432;48.728;9.154;2024-02-14T10:09:41;144671.22;;;11.66;69.57
14689;BME280;7432;48.728;9.154;2024-02-14T10:12:08;144650.63;;;11.57;69.92
14689;BME280;7432;48.728;9.154;2024-02-14T10:14:35;144690.63;;;11.74;69.14
14689;BME280;7432;48.728;9.154;2024-02-14T10:17:02;144730.63;;;11.91;68.58
14689;BME280;7432;48.728;9.154;2024-02-14T10:19:29;144774.22;;;12.09;69.14
14689;BME280;7432;48.728;9.154;2024-02-14T10:21:56;144811.75;;;12.24;68.24
14689;BME280;7432;48.728;9.154;2024-02-14T10:24:25;144838.44;;;12.35;67.98
14689;BME280;7432;48.728;9.154;2024-02-14T10:26:51;144885.69;;;12.55;68.11
14689;BME280;7432;48.728;9.154;2024-02-14T10:29:19;144859.03;;;12.44;67.99
14689;BME280;7432;48.728;9.154;2024-02-14T10:31:46;144796.03;;;12.18;69.61
14689;BME280;7432;48.728;9.154;2024-02-14T10:34:13;144694.25;;;11.75;72.00
14689;BME280;7432;48.728;9.154;2024-02-14T10:36:42;144673.59;;;11.67;72.69
14689;BME280;7432;48.728;9.154;2024-02-14T10:39:09;144657.91;;;11.60;73.13
14689;BME280;7432;48.728;9.154;2024-02-14T10:41:38;144659.09;;;11.61;73.34
14689;BME280;7432;48.728;9.154;2024-02-14T10:44:04;144657.91;;;11.60;73.84
14689;BME280;7432;48.728;9.154;2024-02-14T10:46:32;144639.75;;;11.53;73.45
14689;BME280;7432;48.728;9.154;2024-02-14T10:49:02;144627.59;;;11.48;73.18
14689;BME280;7432;48.728;9.154;2024-02-14T10:51:30;144630.03;;;11.49;73.38
14689;BME280;7432;48.728;9.154;2024-02-14T10:53:58;144631.25;;;11.49;73.88
14689;BME280;7432;48.728;9.154;2024-02-14T10:56:28;144667.56;;;11.64;74.51
14689;BME280;7432;48.728;9.154;2024-02-14T10:58:56;144705.19;;;11.80;74.52
14689;BME280;7432;48.728;9.154;2024-02-14T11:01:24;144750.00;;;11.99;72.87
14689;BME280;7432;48.728;9.154;2024-02-14T11:03:52;144742.72;;;11.96;73.57
14689;BME280;7432;48.728;9.154;2024-02-14T11:06:21;144780.28;;;12.11;73.41
14689;BME280;7432;48.728;9.154;2024-02-14T11:08:56;144793.59;;;12.17;73.74
14689;BME280;7432;48.728;9.154;2024-02-14T11:11:22;144781.50;;;12.12;73.19
14689;BME280;7432;48.728;9.154;2024-02-14T11:13:52;144798.44;;;12.19;73.17
14689;BME280;7432;48.728;9.154;2024-02-14T11:16:25;144805.72;;;12.22;73.11
14689;BME280;7432;48.728;9.154;2024-02-14T11:18:53;144779.03;;;12.11;73.88
14689;BME280;7432;48.728;9.154;2024-02-14T11:21:20;144725.75;;;11.88;74.41
14689;BME280;7432;48.728;9.154;2024-02-14T11:23:52;144717.28;;;11.85;74.94
14689;BME280;7432;48.728;9.154;2024-02-14T11:26:19;144705.19;;;11.80;75.23
14689;BME280;7432;48.728;9.154;2024-02-14T11:28:48;144737.91;;;11.94;75.13
14689;BME280;7432;48.728;9.154;2024-02-14T11:31:16;144722.13;;;11.87;74.73
14689;BME280;7432;48.728;9.154;2024-02-14T11:33:44;144762.09;;;12.04;74.18
14689;BME280;7432;48.728;9.154;2024-02-14T11:36:12;144821.47;;;12.28;74.16
14689;BME280;7432;48.728;9.154;2024-02-14T11:38:40;144911.16;;;12.66;72.25
14689;BME280;7432;48.728;9.154;2024-02-14T11:41:07;144899.03;;;12.61;72.54
14689;BME280;7432;48.728;9.154;2024-02-14T11:43:34;144920.88;;;12.70;73.25
14689;BME280;7432;48.728;9.154;2024-02-14T11:46:01;144948.75;;;12.81;71.73
14689;BME280;7432;48.728;9.154;2024-02-14T11:48:29;144928.13;;;12.73;71.85
14689;BME280;7432;48.728;9.154;2024-02-14T11:50:58;144903.88;;;12.63;72.93
14689;BME280;7432;48.728;9.154;2024-02-14T11:53:25;144894.19;;;12.59;72.83
14689;BME280;7432;48.728;9.154;2024-02-14T11:55:53;144922.09;;;12.70;72.21
14689;BME280;7432;48.728;9.154;2024-02-14T11:58:21;144977.81;;;12.93;71.56
14689;BME280;7432;48.728;9.154;2024-02-14T12:00:48;144999.66;;;13.02;71.35
14689;BME280;7432;48.728;9.154;2024-02-14T12:03:16;145022.72;;;13.12;71.48
14689;BME280;7432;48.728;9.154;2024-02-14T12:05:44;145071.25;;;13.32;70.25
14689;BME280;7432;48.728;9.154;2024-02-14T12:08:14;145028.78;;;13.15;70.04
14689;BME280;7432;48.728;9.154;2024-02-14T12:10:42;145044.56;;;13.21;70.65
14689;BME280;7432;48.728;9.154;2024-02-14T12:13:13;145085.81;;;13.38;69.96
14689;BME280;7432;48.728;9.154;2024-02-14T12:15:44;145147.63;;;13.64;69.60
14689;BME280;7432;48.728;9.154;2024-02-14T12:18:11;145179.16;;;13.77;69.37
14689;BME280;7432;48.728;9.154;2024-02-14T12:20:39;145184.06;;;13.79;68.55
14689;BME280;7432;48.728;9.154;2024-02-14T12:23:06;145167.06;;;13.72;69.29
14689;BME280;7432;48.728;9.154;2024-02-14T12:25:33;145116.13;;;13.51;68.81
14689;BME280;7432;48.728;9.154;2024-02-14T12:28:00;145110.06;;;13.48;69.32
14689;BME280;7432;48.728;9.154;2024-02-14T12:30:42;145068.81;;;13.31;69.89
14689;BME280;7432;48.728;9.154;2024-02-14T12:33:10;145091.88;;;13.41;70.50
14689;BME280;7432;48.728;9.154;2024-02-14T12:35:36;145060.34;;;13.28;70.58
14689;BME280;7432;48.728;9.154;2024-02-14T12:38:07;145071.25;;;13.32;70.69
14689;BME280;7432;48.728;9.154;2024-02-14T12:40:36;145070.03;;;13.32;70.90
14689;BME280;7432;48.728;9.154;2024-02-14T12:43:02;145087.00;;;13.39;71.25
14689;BME280;7432;48.728;9.154;2024-02-14T12:45:31;145104.00;;;13.46;70.24
14689;BME280;7432;48.728;9.154;2024-02-14T12:47:58;145133.06;;;13.58;69.98
14689;BME280;7432;48.728;9.154;2024-02-14T12:50:25;145120.94;;;13.53;69.47
14689;BME280;7432;48.728;9.154;2024-02-14T12:52:52;145165.81;;;13.72;69.11
14689;BME280;7432;48.728;9.154;2024-02-14T12:55:18;145178.00;;;13.77;68.31
14689;BME280;7432;48.728;9.154;2024-02-14T12:57:46;145221.66;;;13.95;68.18
14689;BME280;7432;48.728;9.154;2024-02-14T13:00:14;145224.09;;;13.96;68.57
14689;BME280;7432;48.728;9.154;2024-02-14T13:02:40;145188.91;;;13.81;68.98
14689;BME280;7432;48.728;9.154;2024-02-14T13:05:08;145190.13;;;13.82;68.76
14689;BME280;7432;48.728;9.154;2024-02-14T13:07:34;145182.84;;;13.79;68.54